Time;durP1;ratioP1;P1;durP2;ratioP2;P2;SDS_P1;SDS_P2;PMS_P1;PMS_P2;Temp;Humidity;BMP_temperature;BMP_pressure;BME280_temperature;BME280_humidity;BME280_pressure;Samples;Min_cycle;Max_cycle;Signal;HPM_P1;HPM_P2
2021/08/16 00:00:16;;;;;;;8.38;4.90;;;;;;;;;;5037490;28;20120;-82
2021/08/16 00:02:45;;;;;;;6.15;4.63;;;;;;;;;;5040214;28;20038;-83
2021/08/16 00:05:11;;;;;;;6.35;4.32;;;;;;;;;;5025253;28;21370;-80
2021/08/16 00:07:37;;;;;;;7.57;4.50;;;;;;;;;;5041316;28;20210;-84
2021/08/16 00:10:04;;;;;;;6.88;4.53;;;21.10;99.90;;;;;;5036124;28;20026;-84
2021/08/16 00:12:30;;;;;;;10.40;4.82;;;;;;;;;;5028338;28;20048;-84
2021/08/16 00:14:56;;;;;;;8.20;4.93;;;;;;;;;;5041479;28;20056;-84
2021/08/16 00:17:22;;;;;;;6.43;4.28;;;;;;;;;;5025435;28;20040;-83
2021/08/16 00:19:48;;;;;;;7.32;4.18;;;;;;;;;;5041870;28;20049;-82
2021/08/16 00:22:14;;;;;;;10.20;5.50;;;21.00;99.90;;;;;;5036144;28;20516;-83
2021/08/16 00:24:40;;;;;;;10.40;6.15;;;;;;;;;;5034025;28;20043;-84
2021/08/16 00:27:06;;;;;;;7.47;4.88;;;21.00;99.90;;;;;;5040586;28;20014;-82
2021/08/16 00:29:32;;;;;;;8.55;5.20;;;;;;;;;;5040241;28;20517;-83
2021/08/16 00:31:58;;;;;;;9.82;5.47;;;;;;;;;;5036145;28;20036;-82
2021/08/16 00:34:24;;;;;;;8.32;4.60;;;;;;;;;;5040329;28;20025;-85
2021/08/16 00:36:50;;;;;;;11.43;5.72;;;;;;;;;;5026102;28;20029;-85
2021/08/16 00:39:16;;;;;;;9.70;4.40;;;;;;;;;;5036825;28;20100;-86
2021/08/16 00:41:44;;;;;;;7.07;4.78;;;;;;;;;;5035109;28;20029;-83
2021/08/16 00:44:10;;;;;;;10.93;4.22;;;;;;;;;;5022999;28;20038;-85
2021/08/16 00:46:37;;;;;;;6.57;3.80;;;;;;;;;;5017707;28;20178;-84
2021/08/16 00:49:03;;;;;;;6.15;4.07;;;;;;;;;;5038680;28;20030;-83
2021/08/16 00:51:31;;;;;;;9.02;4.63;;;;;;;;;;5036038;28;20048;-83
2021/08/16 00:53:57;;;;;;;5.85;3.50;;;;;;;;;;5022648;28;20025;-83
2021/08/16 00:56:26;;;;;;;7.70;4.07;;;;;;;;;;5031542;28;20115;-85
2021/08/16 00:58:53;;;;;;;5.67;3.37;;;;;;;;;;5036727;28;20361;-86
2021/08/16 01:01:19;;;;;;;6.30;3.35;;;;;;;;;;5017396;28;20022;-82
2021/08/16 01:03:45;;;;;;;10.00;4.53;;;21.30;99.90;;;;;;5042835;28;20025;-85
2021/08/16 01:06:11;;;;;;;7.03;3.60;;;;;;;;;;5021534;28;20025;-83
2021/08/16 01:08:37;;;;;;;6.63;3.67;;;;;;;;;;5036995;28;20483;-85
2021/08/16 01:11:03;;;;;;;6.05;3.10;;;;;;;;;;5036585;28;20033;-83
2021/08/16 01:13:29;;;;;;;7.53;3.30;;;;;;;;;;5011412;28;20025;-83
2021/08/16 01:16:03;;;;;;;5.63;2.92;;;21.40;99.90;;;;;;5018692;28;20025;-86
2021/08/16 01:18:32;;;;;;;6.28;2.95;;;21.30;99.90;;;;;;5034454;28;20050;-85
2021/08/16 01:20:59;;;;;;;6.45;3.20;;;21.40;99.90;;;;;;5032125;28;20036;-85
2021/08/16 01:23:26;;;;;;;5.85;2.88;;;21.40;99.90;;;;;;5018896;28;20047;-84
2021/08/16 01:25:53;;;;;;;8.10;3.03;;;;;;;;;;5018026;28;20032;-85
2021/08/16 01:28:20;;;;;;;5.55;2.95;;;21.30;99.90;;;;;;5019504;28;20018;-85
2021/08/16 01:30:47;;;;;;;7.45;3.13;;;21.20;99.90;;;;;;5012248;28;20018;-85
2021/08/16 01:33:12;;;;;;;4.05;2.60;;;21.20;99.90;;;;;;5016154;28;20052;-85
2021/08/16 01:35:38;;;;;;;5.85;2.88;;;21.20;99.90;;;;;;5029576;28;20636;-86
2021/08/16 01:38:04;;;;;;;5.03;2.80;;;21.20;99.90;;;;;;5014545;28;20025;-87
2021/08/16 01:40:30;;;;;;;6.65;2.75;;;21.10;99.90;;;;;;5010440;28;20037;-86
2021/08/16 01:42:55;;;;;;;5.90;3.00;;;21.10;99.90;;;;;;5011379;28;20394;-85
2021/08/16 01:45:21;;;;;;;5.13;2.45;;;21.10;99.90;;;;;;5017964;28;20042;-84
2021/08/16 01:47:47;;;;;;;5.50;2.40;;;;;;;;;;5029553;28;20052;-86
2021/08/16 01:50:13;;;;;;;5.50;2.63;;;20.90;99.90;;;;;;5027081;28;20026;-85
2021/08/16 01:52:39;;;;;;;5.90;2.53;;;22.70;99.90;;;;;;5009164;28;20114;-85
2021/08/16 01:55:06;;;;;;;3.58;2.25;;;20.80;99.90;;;;;;5028865;28;20026;-86
2021/08/16 01:57:32;;;;;;;6.88;2.67;;;;;;;;;;5016193;28;20025;-83
2021/08/16 01:59:58;;;;;;;6.55;2.78;;;;;;;;;;5027356;28;20029;-85
2021/08/16 02:02:24;;;;;;;5.82;2.60;;;;;;;;;;5016130;28;20037;-85
2021/08/16 02:04:49;;;;;;;7.45;2.65;;;20.60;99.90;;;;;;5030682;28;20475;-85
2021/08/16 02:07:15;;;;;;;4.90;2.65;;;21.30;99.90;;;;;;5039034;28;20029;-85
2021/08/16 02:09:41;;;;;;;4.85;2.40;;;;;;;;;;5015285;28;20034;-85
2021/08/16 02:12:08;;;;;;;6.70;2.63;;;;;;;;;;5021921;28;20025;-84
2021/08/16 02:14:34;;;;;;;6.45;3.10;;;;;;;;;;5010851;28;20498;-86
2021/08/16 02:17:00;;;;;;;6.95;2.53;;;;;;;;;;5035208;28;20032;-86
2021/08/16 02:19:26;;;;;;;4.65;2.85;;;;;;;;;;5018410;28;20076;-84
2021/08/16 02:21:52;;;;;;;4.80;2.35;;;;;;;;;;5034284;28;20037;-86
2021/08/16 02:24:18;;;;;;;4.50;2.17;;;;;;;;;;5020499;28;20053;-84
2021/08/16 02:26:44;;;;;;;5.38;2.50;;;;;;;;;;5016424;28;20028;-85
2021/08/16 02:29:11;;;;;;;6.03;2.40;;;20.50;99.90;;;;;;5031280;28;20403;-85
2021/08/16 02:31:37;;;;;;;5.35;2.42;;;;;;;;;;5017958;28;20187;-82
2021/08/16 02:34:03;;;;;;;5.75;2.25;;;;;;;;;;5018818;28;20037;-82
2021/08/16 02:36:30;;;;;;;5.63;2.25;;;;;;;;;;5020551;28;20461;-84
2021/08/16 02:38:56;;;;;;;5.57;2.40;;;;;;;;;;5032706;28;20038;-85
2021/08/16 02:41:22;;;;;;;5.60;1.92;;;;;;;;;;5038245;28;20028;-87
2021/08/16 02:43:48;;;;;;;5.05;1.88;;;20.30;99.90;;;;;;5032362;28;20053;-85
2021/08/16 02:46:14;;;;;;;5.78;2.10;;;20.30;99.20;;;;;;5017592;28;20037;-84
2021/08/16 02:48:40;;;;;;;5.55;2.35;;;;;;;;;;5017612;28;20294;-83
2021/08/16 02:51:06;;;;;;;6.05;1.90;;;;;;;;;;5035207;28;20104;-85
2021/08/16 02:53:32;;;;;;;4.65;2.00;;;;;;;;;;5020807;28;20075;-86
2021/08/16 02:55:58;;;;;;;4.70;2.08;;;20.10;98.30;;;;;;5037654;28;20546;-85
2021/08/16 02:58:24;;;;;;;4.00;2.00;;;;;;;;;;5021102;28;20032;-86
2021/08/16 03:00:50;;;;;;;6.07;2.40;;;;;;;;;;5036032;28;20071;-87
2021/08/16 03:03:16;;;;;;;5.78;2.13;;;;;;;;;;5034013;28;20034;-85
2021/08/16 03:05:42;;;;;;;5.25;1.63;;;;;;;;;;5019479;28;20026;-85
2021/08/16 03:08:08;;;;;;;4.97;1.85;;;;;;;;;;5037222;28;20022;-86
2021/08/16 03:10:35;;;;;;;9.85;3.22;;;20.00;96.00;;;;;;5023042;28;20044;-88
2021/08/16 03:13:00;;;;;;;7.38;2.05;;;20.00;96.00;;;;;;5016865;28;20037;-86
2021/08/16 03:15:26;;;;;;;5.63;1.67;;;20.00;95.70;;;;;;5048315;28;20021;-85
2021/08/16 03:17:52;;;;;;;4.82;1.52;;;;;;;;;;5027194;28;20032;-87
2021/08/16 03:20:18;;;;;;;6.28;2.08;;;19.80;94.80;;;;;;5031817;28;20076;-84
2021/08/16 03:22:44;;;;;;;8.70;2.08;;;19.80;95.00;;;;;;5034779;28;20022;-85
2021/08/16 03:25:11;;;;;;;8.00;2.33;;;19.80;94.70;;;;;;5023508;28;20030;-84
2021/08/16 03:27:37;;;;;;;9.32;2.13;;;19.70;94.60;;;;;;5022004;28;20036;-84
2021/08/16 03:30:08;;;;;;;8.65;2.25;;;19.70;94.60;;;;;;5024524;28;20136;-87
2021/08/16 03:32:34;;;;;;;5.80;2.15;;;19.70;94.70;;;;;;5018698;28;20045;-84
2021/08/16 03:35:00;;;;;;;7.50;2.15;;;19.70;94.70;;;;;;5022484;28;20052;-84
2021/08/16 03:37:32;;;;;;;9.70;2.20;;;19.70;94.40;;;;;;5019411;28;20379;-85
2021/08/16 03:39:59;;;;;;;5.95;2.00;;;19.60;94.30;;;;;;5016695;28;20022;-86
2021/08/16 03:42:25;;;;;;;7.05;2.30;;;19.60;94.50;;;;;;5014184;28;20026;-83
2021/08/16 03:44:51;;;;;;;8.07;2.30;;;19.70;94.60;;;;;;5020678;28;20099;-85
2021/08/16 03:47:17;;;;;;;6.07;2.25;;;;;;;;;;5018094;28;20021;-85
2021/08/16 03:49:43;;;;;;;7.65;2.35;;;;;;;;;;5022703;28;20033;-85
2021/08/16 03:52:09;;;;;;;8.68;2.00;;;19.60;94.60;;;;;;5019717;28;20040;-83
2021/08/16 03:54:35;;;;;;;5.93;1.95;;;19.60;95.00;;;;;;5012895;28;20042;-84
2021/08/16 03:57:03;;;;;;;6.72;2.17;;;19.40;95.10;;;;;;5021736;28;20021;-85
2021/08/16 03:59:29;;;;;;;7.55;2.10;;;19.50;95.00;;;;;;5023061;28;20049;-84
2021/08/16 04:01:54;;;;;;;5.15;1.88;;;19.50;95.10;;;;;;5021738;28;20498;-82
2021/08/16 04:04:21;;;;;;;10.20;1.73;;;19.60;95.10;;;;;;5016184;28;20033;-83
2021/08/16 04:06:47;;;;;;;4.45;2.10;;;19.50;95.70;;;;;;5041510;28;20033;-85
2021/08/16 04:09:13;;;;;;;8.43;2.10;;;;;;;;;;5020084;28;20044;-87
2021/08/16 04:11:39;;;;;;;7.43;2.22;;;;;;;;;;5020304;28;20030;-83
2021/08/16 04:14:06;;;;;;;4.00;1.80;;;;;;;;;;5033795;28;20053;-85
2021/08/16 04:16:31;;;;;;;5.15;1.83;;;19.60;95.60;;;;;;5036562;28;20107;-84
2021/08/16 04:18:57;;;;;;;5.57;2.28;;;19.60;96.00;;;;;;5015674;28;20038;-82
2021/08/16 04:21:23;;;;;;;4.32;1.95;;;19.60;96.10;;;;;;5035802;28;20037;-85
2021/08/16 04:23:48;;;;;;;4.65;2.03;;;19.80;96.40;;;;;;5018952;28;20049;-83
2021/08/16 04:26:14;;;;;;;4.60;2.08;;;;;;;;;;5023607;28;20044;-85
2021/08/16 04:28:40;;;;;;;6.85;2.22;;;;;;;;;;5034765;28;20088;-82
2021/08/16 04:31:07;;;;;;;7.13;2.00;;;19.60;96.40;;;;;;5023830;28;20810;-82
2021/08/16 04:33:33;;;;;;;7.53;2.58;;;19.60;96.30;;;;;;5020629;28;20666;-84
2021/08/16 04:35:59;;;;;;;6.72;2.25;;;;;;;;;;5015122;28;20034;-83
2021/08/16 04:38:25;;;;;;;6.68;2.92;;;;;;;;;;5026324;28;20112;-85
2021/08/16 04:40:51;;;;;;;4.85;2.20;;;19.40;96.50;;;;;;5036369;28;20041;-83
2021/08/16 04:43:18;;;;;;;6.88;2.20;;;19.30;96.40;;;;;;5024470;28;20021;-84
2021/08/16 04:45:43;;;;;;;9.70;2.90;;;19.30;95.90;;;;;;5027238;28;20005;-86
2021/08/16 04:48:09;;;;;;;6.18;2.60;;;19.30;96.10;;;;;;5028830;28;20033;-90
2021/08/16 04:50:35;;;;;;;8.98;2.50;;;19.30;95.80;;;;;;5034552;28;20025;-86
2021/08/16 04:53:00;;;;;;;6.57;2.67;;;19.30;96.00;;;;;;5040338;28;20037;-83
2021/08/16 04:55:26;;;;;;;7.25;2.88;;;;;;;;;;5031287;28;20029;-84
2021/08/16 04:57:52;;;;;;;8.15;2.10;;;;;;;;;;5047308;28;20037;-85
2021/08/16 05:00:23;;;;;;;4.75;2.10;;;19.30;96.00;;;;;;5039980;28;20040;-85
2021/08/16 05:02:49;;;;;;;6.53;2.33;;;;;;;;;;5024434;28;20034;-84
2021/08/16 05:05:15;;;;;;;6.05;1.98;;;;;;;;;;5038884;28;20033;-84
2021/08/16 05:07:49;;;;;;;7.72;1.92;;;19.30;97.00;;;;;;5021579;28;20036;-85
2021/08/16 05:10:16;;;;;;;9.85;2.17;;;19.20;97.50;;;;;;5021159;28;20021;-84
2021/08/16 05:12:41;;;;;;;5.40;1.58;;;19.40;97.50;;;;;;5022062;28;20025;-84
2021/08/16 05:15:07;;;;;;;6.22;2.45;;;19.30;97.20;;;;;;5021970;28;20057;-82
2021/08/16 05:17:34;;;;;;;7.53;1.92;;;19.30;96.70;;;;;;5028626;28;20030;-86
2021/08/16 05:20:01;;;;;;;5.28;2.00;;;19.20;96.50;;;;;;5023719;28;20026;-83
2021/08/16 05:22:27;;;;;;;6.47;1.80;;;19.20;96.10;;;;;;5019769;28;20022;-83
2021/08/16 05:24:52;;;;;;;4.18;1.70;;;19.20;96.30;;;;;;5019071;28;20040;-82
2021/08/16 05:27:18;;;;;;;4.70;1.60;;;;;;;;;;5020032;28;20112;-84
2021/08/16 05:29:44;;;;;;;6.38;1.90;;;;;;;;;;5021683;28;20072;-85
2021/08/16 05:32:10;;;;;;;5.38;1.92;;;19.20;96.40;;;;;;5033539;28;20130;-83
2021/08/16 05:34:36;;;;;;;6.38;1.83;;;;;;;;;;5017038;28;20049;-84
2021/08/16 05:37:03;;;;;;;5.78;1.83;;;19.30;96.20;;;;;;5018953;28;20030;-85
2021/08/16 05:39:28;;;;;;;6.30;2.00;;;19.40;96.70;;;;;;5029746;28;20056;-84
2021/08/16 05:41:54;;;;;;;6.65;2.28;;;;;;;;;;5019390;28;20041;-85
2021/08/16 05:44:20;;;;;;;5.80;1.90;;;;;;;;;;5018741;28;20495;-84
2021/08/16 05:46:46;;;;;;;5.18;1.90;;;19.40;95.80;;;;;;5032717;28;20029;-85
2021/08/16 05:49:12;;;;;;;8.32;1.90;;;19.30;96.30;;;;;;5019438;28;20512;-85
2021/08/16 05:51:38;;;;;;;4.45;1.88;;;;;;;;;;5027715;28;20034;-84
2021/08/16 05:54:04;;;;;;;6.35;1.77;;;;;;;;;;5019503;28;20079;-84
2021/08/16 05:56:30;;;;;;;6.90;2.00;;;;;;;;;;5015859;28;20053;-82
2021/08/16 05:58:56;;;;;;;6.95;2.00;;;;;;;;;;5017243;28;20055;-84
2021/08/16 06:01:22;;;;;;;4.70;2.03;;;19.40;96.40;;;;;;5015841;28;20073;-82
2021/08/16 06:03:47;;;;;;;17.58;3.10;;;19.50;96.10;;;;;;5011919;28;20070;-83
2021/08/16 06:06:13;;;;;;;7.60;1.80;;;19.40;96.30;;;;;;5012069;28;20439;-82
2021/08/16 06:08:39;;;;;;;5.45;1.80;;;;;;;;;;5011183;28;20026;-82
2021/08/16 06:11:06;;;;;;;4.95;1.80;;;19.50;96.10;;;;;;5027967;28;20241;-84
2021/08/16 06:13:32;;;;;;;7.53;2.10;;;19.40;96.70;;;;;;5031441;28;20018;-82
2021/08/16 06:15:58;;;;;;;6.47;1.88;;;19.30;96.60;;;;;;5009926;28;20029;-82
2021/08/16 06:18:24;;;;;;;5.35;1.80;;;19.30;96.30;;;;;;5011573;28;20040;-84
2021/08/16 06:20:50;;;;;;;8.57;2.00;;;19.60;96.60;;;;;;5009149;28;20030;-83
2021/08/16 06:23:16;;;;;;;6.20;1.88;;;;;;;;;;5035845;28;20025;-84
2021/08/16 06:25:42;;;;;;;6.53;2.00;;;;;;;;;;5037808;28;20029;-81
2021/08/16 06:28:07;;;;;;;5.47;1.92;;;19.40;96.30;;;;;;5026495;28;20026;-81
2021/08/16 06:30:34;;;;;;;5.95;1.70;;;19.60;95.90;;;;;;5015018;28;20032;-84
2021/08/16 06:33:00;;;;;;;7.00;1.67;;;;;;;;;;5014910;28;20022;-83
2021/08/16 06:35:26;;;;;;;8.63;2.30;;;19.60;95.40;;;;;;5030199;28;20076;-82
2021/08/16 06:37:54;;;;;;;7.13;2.03;;;19.70;95.80;;;;;;5021975;28;20029;-80
2021/08/16 06:40:19;;;;;;;9.15;1.95;;;19.70;95.10;;;;;;5018575;28;20502;-83
2021/08/16 06:42:45;;;;;;;4.55;1.73;;;;;;;;;;5021635;28;20029;-79
2021/08/16 06:45:11;;;;;;;5.03;1.70;;;19.80;95.20;;;;;;5018447;28;20037;-81
2021/08/16 06:47:38;;;;;;;17.17;3.42;;;19.60;95.10;;;;;;5017846;28;20029;-80
2021/08/16 06:50:04;;;;;;;6.18;1.70;;;19.60;95.10;;;;;;5020112;28;20021;-80
2021/08/16 06:52:30;;;;;;;6.32;1.70;;;;;;;;;;5023884;28;20026;-80
2021/08/16 06:54:56;;;;;;;5.80;1.90;;;19.60;95.30;;;;;;5040423;28;20021;-81
2021/08/16 06:57:26;;;;;;;7.45;2.28;;;;;;;;;;5017407;28;20443;-78
2021/08/16 06:59:52;;;;;;;;;;;19.60;95.40;;;;;;5032181;28;20017;-80
2021/08/16 07:02:18;;;;;;;7.18;2.03;;;;;;;;;;5039188;28;19931;-81
2021/08/16 07:04:43;;;;;;;6.50;1.70;;;19.80;95.10;;;;;;5020683;28;20029;-80
2021/08/16 07:07:09;;;;;;;5.22;1.85;;;20.20;95.40;;;;;;5018483;28;20022;-83
2021/08/16 07:09:34;;;;;;;6.30;2.03;;;20.00;94.90;;;;;;5034701;28;20028;-82
2021/08/16 07:12:00;;;;;;;7.18;1.73;;;;;;;;;;5021172;28;20030;-81
2021/08/16 07:14:26;;;;;;;7.47;2.65;;;;;;;;;;5030120;28;20886;-83
2021/08/16 07:16:52;;;;;;;5.40;1.73;;;;;;;;;;5037612;28;20075;-82
2021/08/16 07:19:18;;;;;;;7.32;1.50;;;;;;;;;;5025400;28;20036;-81
2021/08/16 07:21:46;;;;;;;5.32;1.80;;;;;;;;;;5038219;28;20030;-83
2021/08/16 07:24:12;;;;;;;4.53;1.80;;;;;;;;;;5028496;28;20076;-82
2021/08/16 07:26:38;;;;;;;4.55;1.38;;;;;;;;;;5014456;28;20034;-81
2021/08/16 07:29:04;;;;;;;7.05;1.85;;;20.00;94.80;;;;;;5019559;28;20069;-81
2021/08/16 07:31:29;;;;;;;5.43;1.60;;;20.20;95.30;;;;;;5026429;28;20028;-81
2021/08/16 07:33:55;;;;;;;5.72;1.80;;;20.20;95.20;;;;;;5024576;28;20066;-84
2021/08/16 07:36:21;;;;;;;7.80;1.65;;;21.30;94.80;;;;;;5025194;28;20060;-82
2021/08/16 07:38:46;;;;;;;4.95;1.83;;;20.30;94.70;;;;;;5021217;28;20028;-84
2021/08/16 07:41:12;;;;;;;9.60;2.50;;;20.20;94.60;;;;;;5021458;28;20076;-84
2021/08/16 07:43:39;;;;;;;8.95;2.10;;;20.20;94.90;;;;;;5038775;28;20038;-82
2021/08/16 07:46:05;;;;;;;5.88;2.53;;;20.30;95.00;;;;;;5043674;28;20026;-82
2021/08/16 07:48:31;;;;;;;4.28;1.60;;;;;;;;;;5028926;28;20028;-81
2021/08/16 07:50:57;;;;;;;5.85;1.60;;;;;;;;;;5039838;28;20022;-82
2021/08/16 07:53:23;;;;;;;4.82;1.60;;;;;;;;;;5048670;28;20032;-82
2021/08/16 07:55:49;;;;;;;4.00;1.60;;;;;;;;;;5036979;28;20451;-82
2021/08/16 07:58:15;;;;;;;8.10;2.40;;;;;;;;;;5036607;28;20148;-82
2021/08/16 08:00:41;;;;;;;4.90;1.77;;;;;;;;;;5031667;28;20026;-81
2021/08/16 08:03:07;;;;;;;6.78;1.73;;;;;;;;;;5039304;28;20029;-83
2021/08/16 08:05:32;;;;;;;5.80;1.65;;;20.70;94.20;;;;;;5030045;28;20029;-85
2021/08/16 08:08:00;;;;;;;5.03;1.30;;;;;;;;;;5030877;28;20080;-84
2021/08/16 08:10:26;;;;;;;5.82;1.63;;;;;;;;;;5039701;28;20030;-82
2021/08/16 08:12:52;;;;;;;5.20;1.70;;;;;;;;;;5044137;28;20489;-82
2021/08/16 08:15:18;;;;;;;5.97;1.55;;;;;;;;;;5051721;28;20018;-82
2021/08/16 08:17:45;;;;;;;5.63;1.77;;;21.00;93.40;;;;;;5031645;28;20030;-80
2021/08/16 08:20:12;;;;;;;4.80;1.65;;;21.10;94.00;;;;;;5021042;28;20053;-83
2021/08/16 08:22:38;;;;;;;6.05;1.50;;;;;;;;;;5021947;28;20092;-82
2021/08/16 08:25:04;;;;;;;3.83;1.70;;;21.30;93.00;;;;;;5017427;28;20021;-80
2021/08/16 08:27:30;;;;;;;5.53;1.50;;;21.30;93.40;;;;;;5019940;28;20029;-81
2021/08/16 08:29:56;;;;;;;5.70;1.98;;;;;;;;;;5014667;28;20120;-79
2021/08/16 08:32:22;;;;;;;5.72;1.80;;;21.20;92.80;;;;;;5035071;28;20055;-82
2021/08/16 08:34:48;;;;;;;5.18;1.70;;;21.20;93.20;;;;;;5031111;28;20030;-82
2021/08/16 08:37:14;;;;;;;5.38;1.70;;;21.20;93.20;;;;;;5015892;28;20022;-81
2021/08/16 08:39:45;;;;;;;10.77;1.50;;;21.40;93.10;;;;;;5017215;28;20159;-79
2021/08/16 08:42:13;;;;;;;4.43;1.65;;;21.90;93.20;;;;;;5027158;28;20052;-81
2021/08/16 08:44:40;;;;;;;8.55;1.70;;;21.60;93.20;;;;;;5010904;28;20927;-82
2021/08/16 08:47:07;;;;;;;6.93;1.80;;;21.60;92.70;;;;;;5035556;28;20402;-82
2021/08/16 08:49:33;;;;;;;4.95;1.40;;;21.90;92.50;;;;;;5015252;28;20073;-79
2021/08/16 08:51:59;;;;;;;5.43;2.00;;;;;;;;;;5013764;28;20030;-77
2021/08/16 08:54:27;;;;;;;4.72;1.55;;;22.00;92.20;;;;;;5013701;28;20029;-81
2021/08/16 08:56:53;;;;;;;4.18;1.77;;;;;;;;;;5012831;28;20038;-81
2021/08/16 08:59:19;;;;;;;5.28;1.90;;;;;;;;;;5032862;28;20143;-84
2021/08/16 09:01:53;;;;;;;4.65;1.45;;;21.90;92.20;;;;;;5031355;28;20040;-80
2021/08/16 09:04:19;;;;;;;5.93;1.88;;;;;;;;;;5032256;28;20164;-83
2021/08/16 09:06:45;;;;;;;4.90;1.65;;;;;;;;;;5017345;28;20156;-79
2021/08/16 09:09:11;;;;;;;7.63;2.10;;;22.50;91.50;;;;;;5024407;28;20026;-78
2021/08/16 09:11:37;;;;;;;6.82;1.65;;;22.70;91.40;;;;;;5026622;28;20061;-82
2021/08/16 09:14:05;;;;;;;6.65;2.13;;;23.10;91.90;;;;;;5008816;28;20048;-80
2021/08/16 09:16:35;;;;;;;4.13;1.77;;;23.00;92.10;;;;;;5028112;28;20049;-78
2021/08/16 09:19:24;;;;;;;5.97;2.15;;;23.20;90.70;;;;;;5031338;28;20639;-79
2021/08/16 09:22:02;;;;;;;4.80;1.75;;;23.30;91.50;;;;;;5010406;28;20071;-81
2021/08/16 09:24:34;;;;;;;9.75;2.38;;;23.40;90.10;;;;;;5032170;28;20033;-80
2021/08/16 09:27:05;;;;;;;5.65;2.20;;;22.80;90.20;;;;;;5018193;28;20035;-80
2021/08/16 09:29:31;;;;;;;7.82;2.30;;;22.70;90.60;;;;;;5017916;28;20481;-78
2021/08/16 09:32:04;;;;;;;6.97;2.15;;;22.50;91.70;;;;;;5029952;28;20029;-80
2021/08/16 09:34:40;;;;;;;7.53;1.60;;;22.30;91.10;;;;;;5019538;28;20029;-80
2021/08/16 09:37:24;;;;;;;5.72;1.70;;;22.30;91.60;;;;;;5015032;28;20041;-80
2021/08/16 09:40:05;;;;;;;5.13;1.70;;;22.60;91.10;;;;;;5032547;28;20032;-83
2021/08/16 09:42:50;;;;;;;7.15;2.10;;;22.70;91.00;;;;;;5027446;28;20093;-81
2021/08/16 09:45:34;;;;;;;8.02;1.92;;;22.70;91.20;;;;;;5015408;28;20030;-80
2021/08/16 09:48:02;;;;;;;8.85;1.98;;;22.60;91.30;;;;;;5046226;28;20613;-80
2021/08/16 09:50:42;;;;;;;5.07;2.03;;;22.50;91.20;;;;;;5018269;28;20097;-81
2021/08/16 09:53:11;;;;;;;5.95;1.88;;;22.40;91.70;;;;;;5031501;28;20030;-78
2021/08/16 09:55:43;;;;;;;5.00;2.10;;;22.40;91.40;;;;;;5027189;28;20048;-81
2021/08/16 09:58:14;;;;;;;5.18;2.20;;;22.30;91.30;;;;;;5012325;28;20033;-79
2021/08/16 10:00:44;;;;;;;6.57;1.77;;;22.30;91.90;;;;;;5009240;28;20557;-81
2021/08/16 10:03:13;;;;;;;6.35;2.10;;;;;;;;;;5016201;28;20122;-80
2021/08/16 10:05:41;;;;;;;7.30;2.10;;;22.10;91.90;;;;;;5021296;28;20120;-78
2021/08/16 10:08:09;;;;;;;6.38;2.33;;;21.70;92.90;;;;;;5030963;28;20048;-81
2021/08/16 10:10:36;;;;;;;5.53;2.40;;;21.60;93.80;;;;;;5038882;28;20029;-80
2021/08/16 10:13:04;;;;;;;5.88;2.13;;;21.60;94.10;;;;;;5016404;28;20053;-78
2021/08/16 10:15:36;;;;;;;7.72;2.50;;;21.60;94.10;;;;;;5017138;28;20407;-79
2021/08/16 10:18:04;;;;;;;7.70;2.42;;;21.40;94.50;;;;;;5009706;28;20033;-80
2021/08/16 10:20:31;;;;;;;6.68;2.30;;;21.50;94.90;;;;;;5027777;28;20097;-79
2021/08/16 10:22:56;;;;;;;6.28;2.42;;;21.50;95.10;;;;;;4995445;28;20423;-79
2021/08/16 10:25:23;;;;;;;7.28;2.90;;;21.60;94.60;;;;;;5021905;28;20034;-80
2021/08/16 10:28:00;;;;;;;7.60;2.00;;;21.70;94.10;;;;;;5026149;28;20030;-80
2021/08/16 10:30:25;;;;;;;6.15;1.92;;;21.70;94.20;;;;;;5010904;28;20120;-80
2021/08/16 10:33:01;;;;;;;6.38;2.00;;;21.60;94.10;;;;;;5015655;28;20084;-81
2021/08/16 10:35:38;;;;;;;5.47;2.10;;;21.70;93.90;;;;;;5028234;28;20026;-80
2021/08/16 10:38:11;;;;;;;5.03;2.15;;;21.70;93.80;;;;;;5017748;28;20022;-81
2021/08/16 10:40:46;;;;;;;6.20;2.33;;;21.70;93.60;;;;;;5012626;28;20352;-79
2021/08/16 10:43:13;;;;;;;4.47;2.17;;;21.60;94.10;;;;;;5015945;28;20034;-80
2021/08/16 10:45:47;;;;;;;6.57;2.15;;;21.70;93.60;;;;;;5023348;28;20057;-81
2021/08/16 10:48:24;;;;;;;7.72;3.45;;;21.40;94.10;;;;;;5030182;28;20490;-80
2021/08/16 10:51:03;;;;;;;6.50;2.47;;;21.50;94.30;;;;;;5013829;28;20022;-81
2021/08/16 10:53:29;;;;;;;5.68;2.20;;;21.80;92.60;;;;;;5015160;28;20026;-80
2021/08/16 10:55:55;;;;;;;5.43;2.13;;;21.80;92.90;;;;;;5028884;28;20513;-78
2021/08/16 10:58:21;;;;;;;6.05;2.33;;;21.90;93.20;;;;;;5027422;28;20029;-82
2021/08/16 11:00:46;;;;;;;7.10;2.17;;;22.20;92.50;;;;;;5024943;28;20468;-78
2021/08/16 11:03:13;;;;;;;6.03;2.10;;;22.30;92.10;;;;;;5021157;28;20036;-78
2021/08/16 11:05:40;;;;;;;4.75;2.42;;;22.50;92.30;;;;;;5026028;28;20095;-80
2021/08/16 11:08:07;;;;;;;5.35;1.98;;;22.40;92.10;;;;;;5021387;28;20027;-78
2021/08/16 11:10:45;;;;;;;4.78;1.90;;;22.30;92.30;;;;;;5040974;28;20063;-79
2021/08/16 11:13:13;;;;;;;4.10;1.80;;;22.40;91.40;;;;;;5013433;28;20067;-78
2021/08/16 11:15:39;;;;;;;7.80;1.83;;;20.40;91.10;;;;;;5019483;28;20068;-79
2021/08/16 11:18:10;;;;;;;4.38;1.50;;;22.60;91.60;;;;;;5014613;28;20033;-78
2021/08/16 11:20:35;;;;;;;4.63;1.75;;;22.70;90.80;;;;;;5017772;28;20033;-79
2021/08/16 11:23:01;;;;;;;8.52;1.73;;;23.80;91.10;;;;;;5023803;28;20124;-76
2021/08/16 11:25:27;;;;;;;4.72;1.92;;;23.40;90.50;;;;;;5034422;28;20040;-79
2021/08/16 11:28:02;;;;;;;2.45;1.85;;;23.60;89.90;;;;;;5018162;28;20044;-78
2021/08/16 11:30:29;;;;;;;2.40;1.20;;;23.80;88.60;;;;;;5017347;28;20053;-80
2021/08/16 11:32:55;;;;;;;5.07;1.48;;;23.50;89.10;;;;;;5018943;28;20021;-82
2021/08/16 11:35:25;;;;;;;3.22;1.63;;;23.70;89.10;;;;;;5023675;28;20025;-81
2021/08/16 11:37:50;;;;;;;2.95;1.42;;;23.50;88.60;;;;;;5023733;28;20135;-83
2021/08/16 11:40:17;;;;;;;4.65;1.60;;;;;;;;;;5016396;28;20065;-81
2021/08/16 11:42:43;;;;;;;2.90;1.60;;;23.70;88.70;;;;;;5035778;28;20022;-80
2021/08/16 11:45:11;;;;;;;5.20;1.67;;;23.90;88.40;;;;;;5029181;28;20092;-80
2021/08/16 11:47:45;;;;;;;3.78;1.75;;;24.10;88.40;;;;;;5029271;28;20105;-77
2021/08/16 11:50:14;;;;;;;3.90;1.60;;;24.10;86.50;;;;;;5029776;28;20052;-79
2021/08/16 11:52:40;;;;;;;6.53;1.80;;;24.00;87.00;;;;;;5035600;28;20499;-80
2021/08/16 11:55:07;;;;;;;4.10;2.05;;;24.00;87.20;;;;;;5012171;28;20460;-78
2021/08/16 11:57:34;;;;;;;4.68;1.95;;;23.90;87.70;;;;;;5008836;28;20056;-81
2021/08/16 12:00:02;;;;;;;3.53;1.73;;;23.80;87.70;;;;;;5013818;28;20026;-81
2021/08/16 12:02:30;;;;;;;4.93;2.03;;;23.70;88.10;;;;;;5025320;28;20037;-79
2021/08/16 12:04:58;;;;;;;4.57;1.85;;;23.30;88.00;;;;;;5025635;28;20129;-79
2021/08/16 12:07:29;;;;;;;5.43;2.00;;;23.30;88.40;;;;;;5035611;28;20750;-80
2021/08/16 12:09:56;;;;;;;4.78;1.90;;;22.90;89.40;;;;;;5022683;28;20013;-79
2021/08/16 12:12:24;;;;;;;4.95;1.83;;;22.90;89.80;;;;;;5028248;28;20040;-81
2021/08/16 12:15:07;;;;;;;7.50;2.25;;;22.70;90.30;;;;;;5040489;28;20056;-83
2021/08/16 12:17:33;;;;;;;6.25;1.80;;;22.70;90.60;;;;;;5029406;28;20657;-80
2021/08/16 12:20:08;;;;;;;6.22;2.25;;;22.90;89.90;;;;;;5021956;28;20043;-80
2021/08/16 12:22:50;;;;;;;8.57;2.65;;;22.80;90.20;;;;;;5040200;28;20025;-81
2021/08/16 12:25:16;;;;;;;6.25;2.00;;;22.90;90.30;;;;;;5030591;28;20017;-80
2021/08/16 12:27:42;;;;;;;6.75;2.40;;;22.90;90.00;;;;;;5033169;28;20017;-82
2021/08/16 12:30:17;;;;;;;6.30;2.20;;;23.10;90.30;;;;;;5024470;28;20545;-79
2021/08/16 12:32:43;;;;;;;5.28;2.38;;;23.10;90.40;;;;;;5032560;28;20027;-79
2021/08/16 12:35:16;;;;;;;4.25;1.92;;;23.30;87.90;;;;;;5039881;28;20454;-80
2021/08/16 12:37:42;;;;;;;3.45;1.77;;;23.30;88.20;;;;;;5025352;28;20029;-81
2021/08/16 12:40:09;;;;;;;4.82;1.95;;;;;;;;;;5024942;28;20418;-81
2021/08/16 12:42:36;;;;;;;4.15;2.00;;;;;;;;;;5023391;28;20025;-79
2021/08/16 12:45:03;;;;;;;6.05;1.95;;;22.80;89.10;;;;;;5038153;28;20062;-80
2021/08/16 12:47:33;;;;;;;4.28;1.52;;;22.70;88.10;;;;;;5040312;28;20029;-80
2021/08/16 12:50:06;;;;;;;;;;;22.80;88.80;;;;;;5022020;28;20021;-78
2021/08/16 12:52:32;;;;;;;3.95;1.63;;;22.70;88.80;;;;;;5039086;28;20291;-80
2021/08/16 12:54:57;;;;;;;4.90;1.65;;;22.90;89.70;;;;;;5024129;28;20180;-80
2021/08/16 12:57:23;;;;;;;4.22;1.50;;;22.70;90.00;;;;;;5023050;28;20025;-82
2021/08/16 12:59:49;;;;;;;6.05;1.73;;;22.60;90.20;;;;;;5019686;28;20045;-79
2021/08/16 13:02:23;;;;;;;8.35;1.90;;;22.60;90.30;;;;;;5033277;28;20018;-80
2021/08/16 13:04:49;;;;;;;5.00;1.80;;;22.60;90.40;;;;;;5021957;28;20033;-80
2021/08/16 13:07:15;;;;;;;5.35;1.63;;;22.50;90.80;;;;;;5028655;28;20557;-79
2021/08/16 13:09:41;;;;;;;6.00;2.00;;;22.30;90.70;;;;;;5032203;28;20029;-83
2021/08/16 13:12:07;;;;;;;4.68;2.03;;;22.00;91.10;;;;;;5019981;28;20036;-79
2021/08/16 13:14:32;;;;;;;6.85;2.28;;;22.00;91.40;;;;;;5039941;28;20090;-80
2021/08/16 13:16:58;;;;;;;5.43;2.10;;;22.10;91.60;;;;;;5022225;28;20094;-78
2021/08/16 13:19:23;;;;;;;4.95;1.80;;;22.00;91.40;;;;;;5021760;28;20025;-79
2021/08/16 13:21:49;;;;;;;5.68;1.70;;;22.00;91.60;;;;;;5018258;28;20161;-79